sensor_id;sensor_type;location;lat;lon;timestamp;P1;durP1;ratioP1;P2;durP2;ratioP2
56667;SDS011;42542;48.360;10.958;2023-07-09T00:02:56;16.55;;;6.25;;
56667;SDS011;42542;48.360;10.958;2023-07-09T00:06:00;14.25;;;6.55;;
56667;SDS011;42542;48.360;10.958;2023-07-09T00:09:04;17.52;;;7.03;;
56667;SDS011;42542;48.360;10.958;2023-07-09T00:12:12;17.60;;;6.67;;
56667;SDS011;42542;48.360;10.958;2023-07-09T00:15:16;16.10;;;6.50;;
56667;SDS011;42542;48.360;10.958;2023-07-09T00:18:21;12.88;;;6.55;;
56667;SDS011;42542;48.360;10.958;2023-07-09T00:21:24;14.35;;;6.55;;
56667;SDS011;42542;48.360;10.958;2023-07-09T00:24:25;16.02;;;6.28;;
56667;SDS011;42542;48.360;10.958;2023-07-09T00:27:30;14.20;;;6.07;;
56667;SDS011;42542;48.360;10.958;2023-07-09T00:30:32;14.07;;;6.35;;
56667;SDS011;42542;48.360;10.958;2023-07-09T00:33:35;14.82;;;6.63;;
56667;SDS011;42542;48.360;10.958;2023-07-09T00:36:42;14.20;;;6.20;;
56667;SDS011;42542;48.360;10.958;2023-07-09T00:39:46;14.70;;;6.40;;
56667;SDS011;42542;48.360;10.958;2023-07-09T00:42:52;13.73;;;6.97;;
56667;SDS011;42542;48.360;10.958;2023-07-09T00:49:35;13.25;;;6.05;;
56667;SDS011;42542;48.360;10.958;2023-07-09T00:52:51;15.52;;;6.05;;
56667;SDS011;42542;48.360;10.958;2023-07-09T00:55:56;15.15;;;6.10;;
56667;SDS011;42542;48.360;10.958;2023-07-09T00:59:07;12.07;;;5.67;;
56667;SDS011;42542;48.360;10.958;2023-07-09T01:02:16;17.25;;;5.70;;
56667;SDS011;42542;48.360;10.958;2023-07-09T01:05:25;13.25;;;5.70;;
56667;SDS011;42542;48.360;10.958;2023-07-09T01:08:31;11.95;;;5.40;;
56667;SDS011;42542;48.360;10.958;2023-07-09T01:11:37;12.25;;;5.55;;
56667;SDS011;42542;48.360;10.958;2023-07-09T01:14:41;11.77;;;5.60;;
56667;SDS011;42542;48.360;10.958;2023-07-09T01:17:50;11.98;;;5.30;;
56667;SDS011;42542;48.360;10.958;2023-07-09T01:21:02;13.18;;;5.50;;
56667;SDS011;42542;48.360;10.958;2023-07-09T01:24:45;12.40;;;5.40;;
56667;SDS011;42542;48.360;10.958;2023-07-09T01:27:55;13.68;;;5.45;;
56667;SDS011;42542;48.360;10.958;2023-07-09T01:31:00;11.60;;;5.43;;
56667;SDS011;42542;48.360;10.958;2023-07-09T01:34:08;13.63;;;6.10;;
56667;SDS011;42542;48.360;10.958;2023-07-09T01:37:09;12.88;;;5.53;;
56667;SDS011;42542;48.360;10.958;2023-07-09T01:40:16;12.18;;;5.90;;
56667;SDS011;42542;48.360;10.958;2023-07-09T01:43:33;11.45;;;5.75;;
56667;SDS011;42542;48.360;10.958;2023-07-09T01:46:39;14.23;;;5.80;;
56667;SDS011;42542;48.360;10.958;2023-07-09T01:49:42;12.65;;;6.10;;
56667;SDS011;42542;48.360;10.958;2023-07-09T01:52:48;12.88;;;5.70;;
56667;SDS011;42542;48.360;10.958;2023-07-09T01:55:52;13.98;;;5.95;;
56667;SDS011;42542;48.360;10.958;2023-07-09T01:58:58;12.15;;;6.10;;
56667;SDS011;42542;48.360;10.958;2023-07-09T02:02:04;12.03;;;6.10;;
56667;SDS011;42542;48.360;10.958;2023-07-09T02:05:07;12.63;;;5.70;;
56667;SDS011;42542;48.360;10.958;2023-07-09T02:08:10;13.18;;;5.93;;
56667;SDS011;42542;48.360;10.958;2023-07-09T02:11:15;14.48;;;5.95;;
56667;SDS011;42542;48.360;10.958;2023-07-09T02:14:20;14.20;;;6.18;;
56667;SDS011;42542;48.360;10.958;2023-07-09T02:17:23;12.43;;;5.60;;
56667;SDS011;42542;48.360;10.958;2023-07-09T02:20:25;13.10;;;6.03;;
56667;SDS011;42542;48.360;10.958;2023-07-09T02:23:30;12.60;;;5.68;;
56667;SDS011;42542;48.360;10.958;2023-07-09T02:26:32;13.00;;;6.32;;
56667;SDS011;42542;48.360;10.958;2023-07-09T02:29:37;15.23;;;6.35;;
56667;SDS011;42542;48.360;10.958;2023-07-09T02:32:43;12.10;;;5.73;;
56667;SDS011;42542;48.360;10.958;2023-07-09T02:35:44;12.57;;;5.90;;
56667;SDS011;42542;48.360;10.958;2023-07-09T02:38:47;12.90;;;6.22;;
56667;SDS011;42542;48.360;10.958;2023-07-09T02:41:51;13.13;;;6.25;;
56667;SDS011;42542;48.360;10.958;2023-07-09T02:44:54;12.55;;;6.10;;
56667;SDS011;42542;48.360;10.958;2023-07-09T02:48:00;14.03;;;6.37;;
56667;SDS011;42542;48.360;10.958;2023-07-09T02:51:06;12.43;;;5.80;;
56667;SDS011;42542;48.360;10.958;2023-07-09T02:54:10;12.27;;;6.00;;
56667;SDS011;42542;48.360;10.958;2023-07-09T02:57:16;12.80;;;6.05;;
56667;SDS011;42542;48.360;10.958;2023-07-09T03:00:20;13.18;;;6.18;;
56667;SDS011;42542;48.360;10.958;2023-07-09T03:03:24;12.67;;;5.90;;
56667;SDS011;42542;48.360;10.958;2023-07-09T03:06:26;11.93;;;6.10;;
56667;SDS011;42542;48.360;10.958;2023-07-09T03:09:30;13.93;;;6.30;;
56667;SDS011;42542;48.360;10.958;2023-07-09T03:12:31;12.30;;;6.22;;
56667;SDS011;42542;48.360;10.958;2023-07-09T03:15:34;11.90;;;5.95;;
56667;SDS011;42542;48.360;10.958;2023-07-09T03:18:35;15.70;;;6.70;;
56667;SDS011;42542;48.360;10.958;2023-07-09T03:21:40;13.30;;;6.50;;
56667;SDS011;42542;48.360;10.958;2023-07-09T03:24:43;11.52;;;6.18;;
56667;SDS011;42542;48.360;10.958;2023-07-09T03:27:47;14.23;;;6.20;;
56667;SDS011;42542;48.360;10.958;2023-07-09T03:30:53;11.35;;;5.85;;
56667;SDS011;42542;48.360;10.958;2023-07-09T03:33:56;12.53;;;6.27;;
56667;SDS011;42542;48.360;10.958;2023-07-09T03:36:58;12.88;;;6.47;;
56667;SDS011;42542;48.360;10.958;2023-07-09T03:40:00;12.38;;;6.32;;
56667;SDS011;42542;48.360;10.958;2023-07-09T03:43:04;13.30;;;6.60;;
56667;SDS011;42542;48.360;10.958;2023-07-09T03:46:07;13.25;;;6.30;;
56667;SDS011;42542;48.360;10.958;2023-07-09T03:49:11;12.93;;;6.40;;
56667;SDS011;42542;48.360;10.958;2023-07-09T03:52:16;12.50;;;6.55;;
56667;SDS011;42542;48.360;10.958;2023-07-09T03:55:22;13.45;;;6.30;;
56667;SDS011;42542;48.360;10.958;2023-07-09T03:58:31;13.68;;;6.40;;
56667;SDS011;42542;48.360;10.958;2023-07-09T04:01:34;12.85;;;6.30;;
56667;SDS011;42542;48.360;10.958;2023-07-09T04:04:36;13.20;;;6.43;;
56667;SDS011;42542;48.360;10.958;2023-07-09T04:07:39;13.60;;;6.43;;
56667;SDS011;42542;48.360;10.958;2023-07-09T04:10:42;12.43;;;6.53;;
56667;SDS011;42542;48.360;10.958;2023-07-09T04:13:45;12.13;;;5.90;;
56667;SDS011;42542;48.360;10.958;2023-07-09T04:16:49;14.70;;;6.38;;
56667;SDS011;42542;48.360;10.958;2023-07-09T04:19:52;12.37;;;5.90;;
56667;SDS011;42542;48.360;10.958;2023-07-09T04:22:55;14.55;;;6.03;;
56667;SDS011;42542;48.360;10.958;2023-07-09T04:26:00;14.88;;;6.45;;
56667;SDS011;42542;48.360;10.958;2023-07-09T04:29:06;12.98;;;6.13;;
56667;SDS011;42542;48.360;10.958;2023-07-09T04:32:13;12.85;;;6.40;;
56667;SDS011;42542;48.360;10.958;2023-07-09T04:35:17;13.75;;;6.07;;
56667;SDS011;42542;48.360;10.958;2023-07-09T04:38:22;11.43;;;6.18;;
56667;SDS011;42542;48.360;10.958;2023-07-09T04:41:25;11.95;;;6.20;;
56667;SDS011;42542;48.360;10.958;2023-07-09T04:44:30;12.75;;;6.07;;
56667;SDS011;42542;48.360;10.958;2023-07-09T04:47:33;12.70;;;5.77;;
56667;SDS011;42542;48.360;10.958;2023-07-09T04:50:37;14.48;;;5.80;;
56667;SDS011;42542;48.360;10.958;2023-07-09T04:53:40;11.23;;;5.80;;
56667;SDS011;42542;48.360;10.958;2023-07-09T04:56:44;12.10;;;6.00;;
56667;SDS011;42542;48.360;10.958;2023-07-09T04:59:47;12.98;;;6.30;;
56667;SDS011;42542;48.360;10.958;2023-07-09T05:02:50;13.83;;;6.10;;
56667;SDS011;42542;48.360;10.958;2023-07-09T05:05:52;12.48;;;5.75;;
56667;SDS011;42542;48.360;10.958;2023-07-09T05:08:54;14.95;;;6.40;;
56667;SDS011;42542;48.360;10.958;2023-07-09T05:11:56;12.20;;;6.07;;
56667;SDS011;42542;48.360;10.958;2023-07-09T05:14:59;11.85;;;5.70;;
56667;SDS011;42542;48.360;10.958;2023-07-09T05:18:02;12.67;;;6.10;;
56667;SDS011;42542;48.360;10.958;2023-07-09T05:21:04;12.95;;;5.60;;
56667;SDS011;42542;48.360;10.958;2023-07-09T05:24:07;10.68;;;5.95;;
56667;SDS011;42542;48.360;10.958;2023-07-09T05:27:12;12.02;;;5.80;;
56667;SDS011;42542;48.360;10.958;2023-07-09T05:30:17;11.63;;;5.50;;
56667;SDS011;42542;48.360;10.958;2023-07-09T05:33:22;11.77;;;5.40;;
56667;SDS011;42542;48.360;10.958;2023-07-09T05:36:25;11.05;;;5.70;;
56667;SDS011;42542;48.360;10.958;2023-07-09T05:39:29;13.32;;;5.55;;
56667;SDS011;42542;48.360;10.958;2023-07-09T05:42:31;10.02;;;5.30;;
56667;SDS011;42542;48.360;10.958;2023-07-09T05:45:33;10.80;;;5.90;;
56667;SDS011;42542;48.360;10.958;2023-07-09T05:48:34;12.03;;;5.30;;
56667;SDS011;42542;48.360;10.958;2023-07-09T05:51:37;10.20;;;4.90;;
56667;SDS011;42542;48.360;10.958;2023-07-09T05:54:39;10.30;;;4.90;;
56667;SDS011;42542;48.360;10.958;2023-07-09T05:57:52;10.27;;;4.90;;
56667;SDS011;42542;48.360;10.958;2023-07-09T06:00:55;12.13;;;5.20;;
56667;SDS011;42542;48.360;10.958;2023-07-09T06:04:00;11.30;;;5.13;;
56667;SDS011;42542;48.360;10.958;2023-07-09T06:07:03;11.18;;;4.70;;
56667;SDS011;42542;48.360;10.958;2023-07-09T06:10:07;11.20;;;4.93;;
56667;SDS011;42542;48.360;10.958;2023-07-09T06:13:14;9.13;;;4.65;;
56667;SDS011;42542;48.360;10.958;2023-07-09T06:19:21;9.60;;;4.60;;
56667;SDS011;42542;48.360;10.958;2023-07-09T06:22:25;10.23;;;5.00;;
56667;SDS011;42542;48.360;10.958;2023-07-09T06:25:29;10.05;;;4.82;;
56667;SDS011;42542;48.360;10.958;2023-07-09T06:28:33;9.98;;;4.95;;
56667;SDS011;42542;48.360;10.958;2023-07-09T06:31:34;9.75;;;4.45;;
56667;SDS011;42542;48.360;10.958;2023-07-09T06:34:38;9.47;;;4.70;;
56667;SDS011;42542;48.360;10.958;2023-07-09T06:37:41;11.27;;;4.70;;
56667;SDS011;42542;48.360;10.958;2023-07-09T06:40:43;9.90;;;4.80;;
56667;SDS011;42542;48.360;10.958;2023-07-09T06:43:47;9.40;;;4.50;;
56667;SDS011;42542;48.360;10.958;2023-07-09T06:46:49;9.13;;;4.50;;
56667;SDS011;42542;48.360;10.958;2023-07-09T06:49:52;8.83;;;4.63;;
56667;SDS011;42542;48.360;10.958;2023-07-09T06:52:54;9.03;;;4.40;;
56667;SDS011;42542;48.360;10.958;2023-07-09T06:55:57;9.65;;;4.50;;
56667;SDS011;42542;48.360;10.958;2023-07-09T06:59:06;10.70;;;4.50;;
56667;SDS011;42542;48.360;10.958;2023-07-09T07:02:08;10.15;;;4.00;;
56667;SDS011;42542;48.360;10.958;2023-07-09T07:05:11;9.53;;;4.50;;
56667;SDS011;42542;48.360;10.958;2023-07-09T07:08:14;8.60;;;4.03;;
56667;SDS011;42542;48.360;10.958;2023-07-09T07:11:22;8.75;;;4.13;;
56667;SDS011;42542;48.360;10.958;2023-07-09T07:14:26;9.10;;;4.70;;
56667;SDS011;42542;48.360;10.958;2023-07-09T07:17:31;10.15;;;3.90;;
56667;SDS011;42542;48.360;10.958;2023-07-09T07:20:37;8.63;;;4.03;;
56667;SDS011;42542;48.360;10.958;2023-07-09T07:23:39;9.60;;;3.97;;
56667;SDS011;42542;48.360;10.958;2023-07-09T07:26:43;11.13;;;4.30;;
56667;SDS011;42542;48.360;10.958;2023-07-09T07:29:48;8.70;;;3.95;;
56667;SDS011;42542;48.360;10.958;2023-07-09T07:32:51;7.80;;;3.95;;
56667;SDS011;42542;48.360;10.958;2023-07-09T07:35:57;9.90;;;4.33;;
56667;SDS011;42542;48.360;10.958;2023-07-09T07:39:02;9.87;;;4.10;;
56667;SDS011;42542;48.360;10.958;2023-07-09T07:42:06;8.73;;;3.53;;
56667;SDS011;42542;48.360;10.958;2023-07-09T07:45:09;8.00;;;4.07;;
56667;SDS011;42542;48.360;10.958;2023-07-09T07:48:14;9.13;;;4.13;;
56667;SDS011;42542;48.360;10.958;2023-07-09T07:51:18;8.53;;;3.93;;
56667;SDS011;42542;48.360;10.958;2023-07-09T07:54:23;9.23;;;4.20;;
56667;SDS011;42542;48.360;10.958;2023-07-09T07:57:27;7.40;;;3.70;;
56667;SDS011;42542;48.360;10.958;2023-07-09T08:00:29;8.18;;;3.95;;
56667;SDS011;42542;48.360;10.958;2023-07-09T08:03:36;7.50;;;3.72;;
56667;SDS011;42542;48.360;10.958;2023-07-09T08:06:40;9.20;;;4.00;;
56667;SDS011;42542;48.360;10.958;2023-07-09T08:09:45;6.93;;;3.50;;
56667;SDS011;42542;48.360;10.958;2023-07-09T08:12:53;8.10;;;3.50;;
56667;SDS011;42542;48.360;10.958;2023-07-09T08:15:58;7.82;;;3.60;;
56667;SDS011;42542;48.360;10.958;2023-07-09T08:19:01;7.18;;;3.20;;
56667;SDS011;42542;48.360;10.958;2023-07-09T08:22:03;8.00;;;3.37;;
56667;SDS011;42542;48.360;10.958;2023-07-09T08:25:06;8.07;;;3.50;;
56667;SDS011;42542;48.360;10.958;2023-07-09T08:28:09;7.80;;;3.30;;
56667;SDS011;42542;48.360;10.958;2023-07-09T08:31:14;8.30;;;3.33;;
56667;SDS011;42542;48.360;10.958;2023-07-09T08:34:16;8.40;;;3.42;;
56667;SDS011;42542;48.360;10.958;2023-07-09T08:37:23;7.63;;;3.47;;
56667;SDS011;42542;48.360;10.958;2023-07-09T08:40:27;8.47;;;3.27;;
56667;SDS011;42542;48.360;10.958;2023-07-09T08:43:34;7.88;;;3.50;;
56667;SDS011;42542;48.360;10.958;2023-07-09T08:50:49;8.30;;;3.05;;
56667;SDS011;42542;48.360;10.958;2023-07-09T08:53:56;7.93;;;2.70;;
56667;SDS011;42542;48.360;10.958;2023-07-09T08:57:23;8.37;;;3.20;;
56667;SDS011;42542;48.360;10.958;2023-07-09T09:01:03;6.93;;;3.03;;
56667;SDS011;42542;48.360;10.958;2023-07-09T09:04:13;9.38;;;3.00;;
56667;SDS011;42542;48.360;10.958;2023-07-09T09:10:47;7.70;;;3.00;;
56667;SDS011;42542;48.360;10.958;2023-07-09T09:14:05;7.30;;;3.20;;
56667;SDS011;42542;48.360;10.958;2023-07-09T09:17:20;7.38;;;3.00;;
56667;SDS011;42542;48.360;10.958;2023-07-09T09:20:27;7.20;;;3.00;;
56667;SDS011;42542;48.360;10.958;2023-07-09T09:23:36;7.90;;;3.42;;
56667;SDS011;42542;48.360;10.958;2023-07-09T09:26:44;7.77;;;2.90;;
56667;SDS011;42542;48.360;10.958;2023-07-09T09:29:48;6.53;;;2.97;;
56667;SDS011;42542;48.360;10.958;2023-07-09T09:36:06;6.78;;;3.13;;
56667;SDS011;42542;48.360;10.958;2023-07-09T09:39:32;6.60;;;2.55;;
56667;SDS011;42542;48.360;10.958;2023-07-09T09:42:46;7.50;;;2.90;;
56667;SDS011;42542;48.360;10.958;2023-07-09T09:45:53;9.70;;;2.80;;
56667;SDS011;42542;48.360;10.958;2023-07-09T09:48:59;6.75;;;2.72;;
56667;SDS011;42542;48.360;10.958;2023-07-09T09:52:03;6.40;;;2.80;;
56667;SDS011;42542;48.360;10.958;2023-07-09T09:55:18;8.43;;;2.88;;
56667;SDS011;42542;48.360;10.958;2023-07-09T09:58:25;7.63;;;3.37;;
56667;SDS011;42542;48.360;10.958;2023-07-09T10:01:32;7.47;;;2.83;;
56667;SDS011;42542;48.360;10.958;2023-07-09T10:04:37;6.60;;;2.72;;
56667;SDS011;42542;48.360;10.958;2023-07-09T10:17:52;8.07;;;2.90;;
56667;SDS011;42542;48.360;10.958;2023-07-09T10:24:33;6.70;;;2.80;;
56667;SDS011;42542;48.360;10.958;2023-07-09T10:31:35;8.60;;;2.90;;
56667;SDS011;42542;48.360;10.958;2023-07-09T10:38:55;6.75;;;2.85;;
56667;SDS011;42542;48.360;10.958;2023-07-09T10:42:28;8.23;;;3.00;;
56667;SDS011;42542;48.360;10.958;2023-07-09T10:45:38;7.47;;;2.90;;
56667;SDS011;42542;48.360;10.958;2023-07-09T10:48:49;5.80;;;2.70;;
56667;SDS011;42542;48.360;10.958;2023-07-09T10:52:04;7.17;;;2.87;;
56667;SDS011;42542;48.360;10.958;2023-07-09T11:01:43;8.85;;;3.17;;
56667;SDS011;42542;48.360;10.958;2023-07-09T11:04:57;7.27;;;3.10;;
56667;SDS011;42542;48.360;10.958;2023-07-09T11:08:10;7.00;;;3.13;;
56667;SDS011;42542;48.360;10.958;2023-07-09T11:11:37;9.30;;;3.33;;
56667;SDS011;42542;48.360;10.958;2023-07-09T11:14:48;9.07;;;3.00;;
56667;SDS011;42542;48.360;10.958;2023-07-09T11:17:59;7.30;;;3.05;;
56667;SDS011;42542;48.360;10.958;2023-07-09T11:27:53;9.18;;;3.28;;
56667;SDS011;42542;48.360;10.958;2023-07-09T11:31:08;8.75;;;3.42;;
56667;SDS011;42542;48.360;10.958;2023-07-09T11:34:32;7.13;;;3.25;;
56667;SDS011;42542;48.360;10.958;2023-07-09T11:37:43;9.47;;;3.30;;
56667;SDS011;42542;48.360;10.958;2023-07-09T11:40:54;12.73;;;3.30;;
56667;SDS011;42542;48.360;10.958;2023-07-09T11:44:12;9.25;;;2.90;;
56667;SDS011;42542;48.360;10.958;2023-07-09T11:47:25;7.65;;;3.10;;
56667;SDS011;42542;48.360;10.958;2023-07-09T11:50:34;9.15;;;3.35;;
56667;SDS011;42542;48.360;10.958;2023-07-09T11:53:49;8.27;;;3.20;;
56667;SDS011;42542;48.360;10.958;2023-07-09T11:56:58;8.50;;;3.07;;
56667;SDS011;42542;48.360;10.958;2023-07-09T12:00:02;8.15;;;3.00;;
56667;SDS011;42542;48.360;10.958;2023-07-09T12:03:36;7.05;;;3.00;;
56667;SDS011;42542;48.360;10.958;2023-07-09T12:06:45;8.63;;;3.33;;
56667;SDS011;42542;48.360;10.958;2023-07-09T12:09:49;7.93;;;3.40;;
56667;SDS011;42542;48.360;10.958;2023-07-09T12:12:56;6.87;;;2.97;;
56667;SDS011;42542;48.360;10.958;2023-07-09T12:16:03;9.45;;;3.47;;
56667;SDS011;42542;48.360;10.958;2023-07-09T12:19:22;7.32;;;3.20;;
56667;SDS011;42542;48.360;10.958;2023-07-09T12:22:32;7.68;;;3.40;;
56667;SDS011;42542;48.360;10.958;2023-07-09T12:25:35;7.53;;;3.23;;
56667;SDS011;42542;48.360;10.958;2023-07-09T12:28:39;7.87;;;2.97;;
56667;SDS011;42542;48.360;10.958;2023-07-09T12:31:48;6.60;;;3.10;;
56667;SDS011;42542;48.360;10.958;2023-07-09T12:34:51;7.18;;;3.05;;
56667;SDS011;42542;48.360;10.958;2023-07-09T12:37:56;9.55;;;3.40;;
56667;SDS011;42542;48.360;10.958;2023-07-09T12:41:00;8.70;;;3.60;;
56667;SDS011;42542;48.360;10.958;2023-07-09T12:44:04;8.37;;;3.80;;
56667;SDS011;42542;48.360;10.958;2023-07-09T12:47:15;7.15;;;3.42;;
56667;SDS011;42542;48.360;10.958;2023-07-09T12:50:34;7.45;;;3.20;;
56667;SDS011;42542;48.360;10.958;2023-07-09T12:53:39;8.27;;;3.60;;
56667;SDS011;42542;48.360;10.958;2023-07-09T12:56:43;8.23;;;3.30;;
56667;SDS011;42542;48.360;10.958;2023-07-09T12:59:46;8.70;;;3.80;;
56667;SDS011;42542;48.360;10.958;2023-07-09T13:02:54;7.85;;;3.85;;
56667;SDS011;42542;48.360;10.958;2023-07-09T13:06:03;7.90;;;3.30;;
56667;SDS011;42542;48.360;10.958;2023-07-09T13:09:18;8.55;;;3.50;;
56667;SDS011;42542;48.360;10.958;2023-07-09T13:12:28;7.97;;;3.60;;
56667;SDS011;42542;48.360;10.958;2023-07-09T13:15:40;7.37;;;3.67;;
56667;SDS011;42542;48.360;10.958;2023-07-09T13:18:55;7.10;;;3.83;;
56667;SDS011;42542;48.360;10.958;2023-07-09T13:21:58;8.98;;;3.90;;
56667;SDS011;42542;48.360;10.958;2023-07-09T13:25:00;7.22;;;3.47;;
56667;SDS011;42542;48.360;10.958;2023-07-09T13:28:11;9.37;;;3.80;;
56667;SDS011;42542;48.360;10.958;2023-07-09T13:31:20;8.13;;;3.70;;
56667;SDS011;42542;48.360;10.958;2023-07-09T13:34:29;8.02;;;3.75;;
56667;SDS011;42542;48.360;10.958;2023-07-09T13:37:39;10.32;;;3.58;;
56667;SDS011;42542;48.360;10.958;2023-07-09T13:40:46;8.60;;;3.75;;
56667;SDS011;42542;48.360;10.958;2023-07-09T13:43:51;7.93;;;3.70;;
56667;SDS011;42542;48.360;10.958;2023-07-09T13:46:56;7.43;;;3.70;;
56667;SDS011;42542;48.360;10.958;2023-07-09T13:49:59;7.40;;;3.55;;
56667;SDS011;42542;48.360;10.958;2023-07-09T13:53:02;8.80;;;3.60;;
56667;SDS011;42542;48.360;10.958;2023-07-09T13:56:05;7.38;;;3.40;;
56667;SDS011;42542;48.360;10.958;2023-07-09T13:59:15;9.53;;;3.90;;
56667;SDS011;42542;48.360;10.958;2023-07-09T14:02:26;8.80;;;4.00;;
56667;SDS011;42542;48.360;10.958;2023-07-09T14:05:35;8.00;;;3.75;;
56667;SDS011;42542;48.360;10.958;2023-07-09T14:08:37;8.52;;;4.10;;
56667;SDS011;42542;48.360;10.958;2023-07-09T14:11:44;9.43;;;3.80;;
56667;SDS011;42542;48.360;10.958;2023-07-09T14:14:52;7.67;;;3.90;;
56667;SDS011;42542;48.360;10.958;2023-07-09T14:17:59;8.47;;;3.83;;
56667;SDS011;42542;48.360;10.958;2023-07-09T14:21:18;7.28;;;3.58;;
56667;SDS011;42542;48.360;10.958;2023-07-09T14:24:29;8.48;;;3.80;;
56667;SDS011;42542;48.360;10.958;2023-07-09T14:27:32;9.60;;;3.80;;
56667;SDS011;42542;48.360;10.958;2023-07-09T14:30:34;7.63;;;3.90;;
56667;SDS011;42542;48.360;10.958;2023-07-09T14:33:36;7.80;;;3.90;;
56667;SDS011;42542;48.360;10.958;2023-07-09T14:36:55;8.65;;;3.80;;
56667;SDS011;42542;48.360;10.958;2023-07-09T14:39:58;7.50;;;3.80;;
56667;SDS011;42542;48.360;10.958;2023-07-09T14:43:04;8.05;;;3.90;;
56667;SDS011;42542;48.360;10.958;2023-07-09T14:46:12;7.60;;;3.70;;
56667;SDS011;42542;48.360;10.958;2023-07-09T14:49:16;10.23;;;4.23;;
56667;SDS011;42542;48.360;10.958;2023-07-09T14:52:20;9.65;;;5.68;;
56667;SDS011;42542;48.360;10.958;2023-07-09T14:55:23;9.13;;;4.32;;
56667;SDS011;42542;48.360;10.958;2023-07-09T14:58:26;11.77;;;6.00;;
56667;SDS011;42542;48.360;10.958;2023-07-09T15:01:29;13.87;;;7.47;;
56667;SDS011;42542;48.360;10.958;2023-07-09T15:04:32;14.90;;;9.07;;
56667;SDS011;42542;48.360;10.958;2023-07-09T15:07:37;8.70;;;4.50;;
56667;SDS011;42542;48.360;10.958;2023-07-09T15:10:40;7.70;;;4.07;;
56667;SDS011;42542;48.360;10.958;2023-07-09T15:13:47;11.13;;;4.20;;
56667;SDS011;42542;48.360;10.958;2023-07-09T15:16:52;8.63;;;4.20;;
56667;SDS011;42542;48.360;10.958;2023-07-09T15:20:00;10.50;;;4.50;;
56667;SDS011;42542;48.360;10.958;2023-07-09T15:23:15;7.75;;;4.03;;
56667;SDS011;42542;48.360;10.958;2023-07-09T15:26:26;9.25;;;4.47;;
56667;SDS011;42542;48.360;10.958;2023-07-09T15:29:33;8.90;;;3.70;;
56667;SDS011;42542;48.360;10.958;2023-07-09T15:32:39;9.40;;;3.90;;
56667;SDS011;42542;48.360;10.958;2023-07-09T15:35:44;8.97;;;4.00;;
56667;SDS011;42542;48.360;10.958;2023-07-09T15:38:54;7.03;;;3.60;;
56667;SDS011;42542;48.360;10.958;2023-07-09T15:41:59;8.25;;;3.97;;
56667;SDS011;42542;48.360;10.958;2023-07-09T15:45:05;7.20;;;3.88;;
56667;SDS011;42542;48.360;10.958;2023-07-09T15:48:36;9.27;;;4.27;;
56667;SDS011;42542;48.360;10.958;2023-07-09T15:51:54;8.63;;;4.00;;
56667;SDS011;42542;48.360;10.958;2023-07-09T15:55:02;8.80;;;4.20;;
56667;SDS011;42542;48.360;10.958;2023-07-09T15:58:11;6.93;;;3.60;;
56667;SDS011;42542;48.360;10.958;2023-07-09T16:01:23;8.73;;;3.70;;
56667;SDS011;42542;48.360;10.958;2023-07-09T16:04:29;9.57;;;4.00;;
56667;SDS011;42542;48.360;10.958;2023-07-09T16:07:34;11.60;;;3.90;;
56667;SDS011;42542;48.360;10.958;2023-07-09T16:10:37;7.97;;;3.70;;
56667;SDS011;42542;48.360;10.958;2023-07-09T16:13:46;8.75;;;3.83;;
56667;SDS011;42542;48.360;10.958;2023-07-09T16:16:50;9.73;;;4.07;;
56667;SDS011;42542;48.360;10.958;2023-07-09T16:19:57;9.37;;;3.80;;
56667;SDS011;42542;48.360;10.958;2023-07-09T16:23:00;11.53;;;3.97;;
56667;SDS011;42542;48.360;10.958;2023-07-09T16:26:05;8.50;;;3.70;;
56667;SDS011;42542;48.360;10.958;2023-07-09T16:29:17;9.00;;;3.90;;
56667;SDS011;42542;48.360;10.958;2023-07-09T16:32:26;7.63;;;3.70;;
56667;SDS011;42542;48.360;10.958;2023-07-09T16:35:29;10.53;;;4.03;;
56667;SDS011;42542;48.360;10.958;2023-07-09T16:38:34;7.87;;;3.73;;
56667;SDS011;42542;48.360;10.958;2023-07-09T16:41:40;8.85;;;3.95;;
56667;SDS011;42542;48.360;10.958;2023-07-09T16:44:44;8.70;;;3.92;;
56667;SDS011;42542;48.360;10.958;2023-07-09T16:47:49;9.80;;;3.95;;
56667;SDS011;42542;48.360;10.958;2023-07-09T16:50:53;10.93;;;4.07;;
56667;SDS011;42542;48.360;10.958;2023-07-09T16:53:59;9.33;;;4.00;;
56667;SDS011;42542;48.360;10.958;2023-07-09T16:57:25;8.35;;;3.80;;
56667;SDS011;42542;48.360;10.958;2023-07-09T17:00:34;8.38;;;3.83;;
56667;SDS011;42542;48.360;10.958;2023-07-09T17:03:40;16.23;;;4.20;;
56667;SDS011;42542;48.360;10.958;2023-07-09T17:06:45;9.50;;;3.60;;
56667;SDS011;42542;48.360;10.958;2023-07-09T17:09:47;8.33;;;3.70;;
56667;SDS011;42542;48.360;10.958;2023-07-09T17:12:57;8.82;;;3.70;;
56667;SDS011;42542;48.360;10.958;2023-07-09T17:16:03;8.13;;;3.80;;
56667;SDS011;42542;48.360;10.958;2023-07-09T17:19:11;7.63;;;3.75;;
56667;SDS011;42542;48.360;10.958;2023-07-09T17:22:21;8.23;;;3.50;;
56667;SDS011;42542;48.360;10.958;2023-07-09T17:25:32;7.90;;;3.60;;
56667;SDS011;42542;48.360;10.958;2023-07-09T17:28:38;8.05;;;3.50;;
56667;SDS011;42542;48.360;10.958;2023-07-09T17:31:40;10.15;;;3.65;;
56667;SDS011;42542;48.360;10.958;2023-07-09T17:34:44;9.65;;;3.90;;
56667;SDS011;42542;48.360;10.958;2023-07-09T17:37:51;7.13;;;3.30;;
56667;SDS011;42542;48.360;10.958;2023-07-09T17:41:01;7.27;;;3.50;;
56667;SDS011;42542;48.360;10.958;2023-07-09T17:44:19;8.68;;;3.75;;
56667;SDS011;42542;48.360;10.958;2023-07-09T17:47:26;8.30;;;3.60;;
56667;SDS011;42542;48.360;10.958;2023-07-09T17:50:29;9.20;;;3.90;;
56667;SDS011;42542;48.360;10.958;2023-07-09T17:53:35;8.13;;;3.77;;
56667;SDS011;42542;48.360;10.958;2023-07-09T17:56:38;11.03;;;3.87;;
56667;SDS011;42542;48.360;10.958;2023-07-09T17:59:41;7.25;;;3.63;;
56667;SDS011;42542;48.360;10.958;2023-07-09T18:02:57;10.90;;;3.80;;
56667;SDS011;42542;48.360;10.958;2023-07-09T18:06:02;7.45;;;3.58;;
56667;SDS011;42542;48.360;10.958;2023-07-09T18:09:07;8.33;;;3.60;;
56667;SDS011;42542;48.360;10.958;2023-07-09T18:12:16;9.93;;;3.70;;
56667;SDS011;42542;48.360;10.958;2023-07-09T18:15:25;8.98;;;3.75;;
56667;SDS011;42542;48.360;10.958;2023-07-09T18:18:35;8.27;;;3.70;;
56667;SDS011;42542;48.360;10.958;2023-07-09T18:21:41;9.23;;;3.80;;
56667;SDS011;42542;48.360;10.958;2023-07-09T18:24:45;8.97;;;3.87;;
56667;SDS011;42542;48.360;10.958;2023-07-09T18:28:01;9.43;;;3.70;;
56667;SDS011;42542;48.360;10.958;2023-07-09T18:31:09;8.05;;;3.53;;
56667;SDS011;42542;48.360;10.958;2023-07-09T18:34:19;8.52;;;3.47;;
56667;SDS011;42542;48.360;10.958;2023-07-09T18:37:21;8.63;;;3.20;;
56667;SDS011;42542;48.360;10.958;2023-07-09T18:40:25;8.07;;;3.40;;
56667;SDS011;42542;48.360;10.958;2023-07-09T18:43:33;8.00;;;3.43;;
56667;SDS011;42542;48.360;10.958;2023-07-09T18:46:37;8.63;;;3.38;;
56667;SDS011;42542;48.360;10.958;2023-07-09T18:49:48;9.38;;;3.78;;
56667;SDS011;42542;48.360;10.958;2023-07-09T18:52:53;9.82;;;4.18;;
56667;SDS011;42542;48.360;10.958;2023-07-09T18:56:01;9.37;;;3.90;;
56667;SDS011;42542;48.360;10.958;2023-07-09T18:59:17;10.93;;;4.00;;
56667;SDS011;42542;48.360;10.958;2023-07-09T19:02:22;11.18;;;3.85;;
56667;SDS011;42542;48.360;10.958;2023-07-09T19:05:32;12.23;;;3.95;;
56667;SDS011;42542;48.360;10.958;2023-07-09T19:08:36;9.48;;;4.10;;
56667;SDS011;42542;48.360;10.958;2023-07-09T19:11:38;12.10;;;4.40;;
56667;SDS011;42542;48.360;10.958;2023-07-09T19:14:42;9.13;;;3.80;;